Time;durP1;ratioP1;P1;durP2;ratioP2;P2;SDS_P1;SDS_P2;PMS_P1;PMS_P2;Temp;Humidity;BMP_temperature;BMP_pressure;BME280_temperature;BME280_humidity;BME280_pressure;Samples;Min_cycle;Max_cycle;Signal;HPM_P1;HPM_P2
2022/06/06 00:03:49;;;;;;;9.65;8.63;;;;;;;17.88;75.11;100139.66;2985347;78;21058;-90
2022/06/06 00:07:51;;;;;;;9.95;9.00;;;;;;;17.89;74.97;100128.73;2987522;78;21051;-93
2022/06/06 00:11:58;;;;;;;12.50;8.55;;;;;;;17.91;75.60;100131.27;2999315;79;21028;-91
2022/06/06 00:16:00;;;;;;;9.70;8.80;;;;;;;17.95;75.11;100121.81;2991055;78;21038;-92
2022/06/06 00:20:02;;;;;;;9.60;8.68;;;;;;;17.96;75.24;100107.34;2912037;81;20992;-91
2022/06/06 00:24:04;;;;;;;11.15;9.88;;;;;;;17.94;75.18;100096.73;2918889;81;21016;-92
2022/06/06 00:28:06;;;;;;;10.00;9.10;;;;;;;17.88;75.46;100088.54;2883661;80;21078;-90
2022/06/06 00:36:32;;;;;;;14.05;10.13;;;;;;;17.76;75.88;100079.55;2867767;82;21030;-91
2022/06/06 00:40:34;;;;;;;10.98;9.95;;;;;;;17.73;76.06;100066.47;2880271;82;20990;-92
2022/06/06 00:44:35;;;;;;;10.98;9.95;;;;;;;17.69;76.54;100050.36;2860587;82;21621;-89
2022/06/06 00:48:41;;;;;;;11.00;9.75;;;;;;;17.67;76.85;100044.30;2858067;82;21041;-91
2022/06/06 00:52:45;;;;;;;10.70;8.80;;;;;;;17.66;76.89;100060.11;2967447;79;21044;-89
2022/06/06 00:56:55;;;;;;;14.53;10.15;;;;;;;17.61;77.40;100078.63;2995561;79;21026;-93
2022/06/06 01:00:57;;;;;;;11.08;9.88;;;;;;;17.46;78.27;100074.52;2966418;79;21557;-92
2022/06/06 01:05:01;;;;;;;13.93;10.38;;;;;;;17.38;78.44;100069.50;2934617;79;21057;-93
2022/06/06 01:09:03;;;;;;;11.63;10.23;;;;;;;17.28;79.19;100068.38;3005318;78;21013;-93
2022/06/06 01:13:08;;;;;;;11.88;10.40;;;;;;;17.24;79.40;100071.61;2967941;79;21525;-93
2022/06/06 01:17:20;;;;;;;9.93;8.93;;;;;;;17.21;79.66;100058.00;2967583;79;21036;-92
2022/06/06 01:21:30;;;;;;;10.18;9.10;;;;;;;17.14;80.01;100048.97;2999273;78;21006;-93
2022/06/06 01:26:00;;;;;;;11.68;10.53;;;;;;;17.24;79.11;100037.48;3011015;78;21014;-89
2022/06/06 01:30:06;;;;;;;15.45;12.85;;;;;;;17.31;78.78;100032.25;2966601;78;21041;-93
2022/06/06 01:34:11;;;;;;;19.98;13.00;;;;;;;17.35;78.46;100021.47;3006490;78;21076;-90
2022/06/06 01:38:16;;;;;;;11.47;9.70;;;;;;;17.33;78.56;100021.34;3022884;78;20999;-90
2022/06/06 01:42:50;;;;;;;11.30;10.28;;;;;;;17.34;78.42;100024.35;3020063;78;21005;-92
2022/06/06 01:46:53;;;;;;;13.95;10.68;;;;;;;17.33;78.37;100016.78;2961177;78;20983;-92
2022/06/06 01:50:55;;;;;;;12.53;11.10;;;;;;;17.29;78.25;100014.12;2997653;78;21022;-90
2022/06/06 01:54:58;;;;;;;12.45;10.53;;;;;;;17.21;78.38;100020.89;2967357;78;21012;-90
2022/06/06 01:58:59;;;;;;;12.18;9.68;;;;;;;17.16;78.88;100016.04;2990453;78;21376;-92
2022/06/06 02:03:02;;;;;;;12.53;9.80;;;;;;;17.15;79.25;100025.61;2986433;78;20974;-92
2022/06/06 02:07:04;;;;;;;12.98;11.83;;;;;;;17.21;78.99;100027.09;2902253;81;22255;-92
2022/06/06 02:11:05;;;;;;;11.63;10.48;;;;;;;17.27;78.87;100021.00;2916806;80;21891;-92
2022/06/06 02:15:10;;;;;;;14.03;12.63;;;;;;;17.33;78.71;100022.67;2882706;81;20987;-92
2022/06/06 02:19:11;;;;;;;11.73;10.53;;;;;;;17.36;78.55;100020.98;2888345;81;21049;-92
2022/06/06 02:23:13;;;;;;;11.43;9.65;;;;;;;17.31;79.10;100016.13;2915258;80;21844;-92
2022/06/06 02:27:15;;;;;;;13.05;10.55;;;;;;;17.30;78.73;100016.31;2921949;80;21078;-93
2022/06/06 02:31:16;;;;;;;10.55;9.43;;;;;;;17.39;78.19;99999.11;2916823;80;21030;-90
2022/06/06 02:35:23;;;;;;;12.10;10.98;;;;;;;17.43;77.66;99992.36;2914857;80;21003;-90
2022/06/06 02:39:24;;;;;;;10.15;9.18;;;;;;;17.45;77.32;99997.05;2930860;80;21058;-92
2022/06/06 02:43:25;;;;;;;11.40;10.25;;;;;;;17.45;77.41;100015.05;2950700;80;21065;-92
2022/06/06 02:47:27;;;;;;;18.05;13.43;;;;;;;17.48;77.24;100008.78;2951703;79;21003;-92
2022/06/06 02:51:28;;;;;;;15.43;12.95;;;;;;;17.51;77.17;100005.77;2871999;81;21582;-93
2022/06/06 02:55:31;;;;;;;13.08;11.78;;;;;;;17.60;76.80;100003.86;2867475;80;21399;-88
2022/06/06 02:59:35;;;;;;;11.90;10.45;;;;;;;17.67;76.45;99998.57;2916550;79;20991;-92
2022/06/06 03:03:37;;;;;;;10.80;9.65;;;;;;;17.69;76.21;100001.95;2957934;79;21045;-90
2022/06/06 03:08:05;;;;;;;11.95;10.15;;;;;;;17.67;76.52;100021.43;2856607;81;21011;-90
2022/06/06 03:12:52;;;;;;;23.62;12.07;;;;;;;17.67;76.15;100018.74;2871508;81;21030;-93
2022/06/06 03:21:39;;;;;;;11.15;10.08;;;;;;;17.77;75.84;100020.70;2828672;83;21083;-86
2022/06/06 03:25:48;;;;;;;11.45;10.00;;;;;;;17.79;76.20;100024.05;2740876;86;21422;-89
2022/06/06 03:30:01;;;;;;;11.93;10.00;;;;;;;17.83;75.95;100029.39;2737346;86;21071;-87
2022/06/06 03:34:28;;;;;;;12.15;10.20;;;;;;;17.83;76.40;100041.49;2738627;85;21091;-89
2022/06/06 03:38:53;;;;;;;13.88;9.85;;;;;;;17.77;76.76;100043.56;2741651;86;21592;-89
2022/06/06 03:43:21;;;;;;;11.40;10.38;;;;;;;17.82;77.02;100043.03;2737391;86;21098;-88
2022/06/06 03:47:44;;;;;;;12.25;10.00;;;;;;;17.91;76.82;100043.81;2693825;85;21107;-89
2022/06/06 03:52:00;;;;;;;10.68;9.68;;;;;;;17.99;76.91;100045.08;2696092;86;21175;-87
2022/06/06 03:56:07;;;;;;;;;;;;;;;18.02;77.22;100046.09;2799704;83;21083;-88
2022/06/06 04:00:12;;;;;;;15.68;10.25;;;;;;;18.12;77.38;100049.39;2726964;84;20133;-95
2022/06/06 04:04:15;;;;;;;32.28;12.98;;;;;;;18.24;76.83;100048.94;2752302;84;21051;-90
2022/06/06 04:08:17;;;;;;;38.02;15.90;;;;;;;18.35;76.52;100051.20;2751803;84;21027;-91
2022/06/06 04:12:35;;;;;;;12.63;8.95;;;;;;;18.38;76.02;100050.83;2724981;85;21054;-88
2022/06/06 04:17:07;;;;;;;13.20;11.57;;;;;;;18.45;75.81;100049.59;2806014;81;21050;-86
2022/06/06 04:21:34;;;;;;;11.43;9.73;;;;;;;18.49;75.90;100054.11;2896198;80;21060;-91
2022/06/06 04:26:05;;;;;;;11.70;9.63;;;;;;;18.50;76.20;100059.82;2887409;81;21001;-92
2022/06/06 04:30:14;;;;;;;12.78;11.57;;;;;;;18.65;75.98;100063.34;2913233;81;21574;-88
2022/06/06 04:34:42;;;;;;;15.00;11.22;;;;;;;18.81;75.66;100066.39;2896656;81;20982;-93
2022/06/06 04:39:07;;;;;;;12.00;10.28;;;;;;;19.16;76.00;100080.67;2880350;81;21106;-95
2022/06/06 04:43:38;;;;;;;28.87;12.53;;;;;;;19.60;76.06;100095.11;2898361;80;20999;-88
2022/06/06 04:47:42;;;;;;;15.58;10.72;;;;;;;19.77;73.88;100067.89;2873561;81;21020;-88
2022/06/06 04:51:44;;;;;;;12.15;11.05;;;;;;;19.80;73.95;100085.87;2854764;82;21457;-91
2022/06/06 04:55:49;;;;;;;11.88;10.70;;;;;;;19.84;74.03;100096.59;2866824;82;20999;-91
2022/06/06 04:59:52;;;;;;;15.10;11.57;;;;;;;19.81;73.94;100087.53;2875540;81;21017;-90
2022/06/06 05:03:53;;;;;;;12.03;10.82;;;;;;;19.83;74.42;100092.76;2853005;81;21066;-94
2022/06/06 05:08:19;;;;;;;11.65;10.45;;;;;;;20.12;74.72;100085.58;2853365;82;21010;-92
2022/06/06 05:12:47;;;;;;;11.28;10.03;;;;;;;20.48;73.96;100090.57;2886373;82;21058;-91
2022/06/06 05:17:13;;;;;;;12.07;10.78;;;;;;;20.98;71.46;100087.28;2867786;81;21066;-92
2022/06/06 05:21:23;;;;;;;13.95;9.88;;;;;;;21.69;69.90;100080.42;2870200;81;21509;-91
2022/06/06 05:25:50;;;;;;;10.85;9.90;;;;;;;22.04;69.21;100091.13;2850090;82;21058;-90
2022/06/06 05:30:33;;;;;;;10.80;9.70;;;;;;;22.78;70.49;100074.84;2856777;81;21022;-91
2022/06/06 05:34:52;;;;;;;9.80;8.90;;;;;;;23.89;67.72;100071.78;2861481;82;21059;-91
2022/06/06 05:39:10;;;;;;;8.83;7.78;;;;;;;24.39;63.24;100066.41;2884256;81;21004;-81
2022/06/06 05:43:45;;;;;;;9.95;8.28;;;;;;;24.65;62.40;100060.41;2873632;79;21035;-92
2022/06/06 05:48:13;;;;;;;10.20;8.35;;;;;;;24.53;60.50;100071.70;2871549;82;21615;-89
2022/06/06 05:52:50;;;;;;;8.83;7.17;;;;;;;24.20;62.71;100089.16;2859360;82;21935;-90
2022/06/06 05:57:30;;;;;;;31.52;9.88;;;;;;;23.97;63.16;100098.66;2971249;79;21009;-90
2022/06/06 06:02:19;;;;;;;99.87;21.80;;;;;;;23.56;63.64;100094.02;2978053;79;21581;-90
2022/06/06 06:06:42;;;;;;;9.58;8.45;;;;;;;23.10;64.74;100105.33;2981615;77;20997;-93
2022/06/06 06:10:52;;;;;;;8.93;8.00;;;;;;;22.86;66.48;100109.05;3008913;78;21221;-93
2022/06/06 06:15:14;;;;;;;9.50;8.65;;;;;;;22.73;67.36;100118.55;3002665;79;20964;-89
2022/06/06 06:19:20;;;;;;;11.18;9.30;;;;;;;22.67;67.83;100113.44;3001119;79;21015;-90
2022/06/06 06:23:27;;;;;;;9.95;9.10;;;;;;;22.68;67.56;100107.81;3003940;78;21032;-89
2022/06/06 06:27:34;;;;;;;11.65;10.10;;;;;;;22.70;67.83;100101.34;2986858;79;21560;-91
2022/06/06 06:44:27;;;;;;;10.98;9.98;;;;;;;23.13;68.98;100127.14;2901221;80;22153;-91
2022/06/06 06:48:42;;;;;;;8.90;8.08;;;;;;;23.06;69.35;100131.22;2843318;81;21082;-91
2022/06/06 06:53:00;;;;;;;9.18;7.97;;;;;;;23.09;70.13;100136.22;2868270;81;21150;-91
2022/06/06 06:57:37;;;;;;;9.08;7.72;;;;;;;23.06;73.16;100142.07;2862831;81;21020;-92
2022/06/06 07:11:13;;;;;;;9.38;8.45;;;;;;;22.59;74.59;100138.87;2756539;85;21081;-91
2022/06/06 07:15:41;;;;;;;9.20;8.35;;;;;;;22.27;75.77;100135.94;2772324;84;21124;-89
2022/06/06 07:19:54;;;;;;;9.05;8.30;;;;;;;22.07;77.01;100133.19;2730403;84;21015;-91
2022/06/06 07:24:00;;;;;;;7.45;6.75;;;;;;;21.80;78.23;100132.59;2758982;85;21100;-91
2022/06/06 07:28:01;;;;;;;10.80;8.33;;;;;;;21.66;78.81;100137.67;2771999;84;21053;-89
2022/06/06 07:32:30;;;;;;;11.55;7.58;;;;;;;21.50;79.96;100135.60;2776891;83;21034;-91
2022/06/06 07:36:58;;;;;;;8.25;7.28;;;;;;;21.38;81.26;100137.20;2791873;84;21803;-89
2022/06/06 07:41:23;;;;;;;19.48;9.53;;;;;;;21.30;81.99;100146.84;2777506;83;21152;-91
2022/06/06 07:45:47;;;;;;;17.77;7.87;;;;;;;21.39;83.54;100151.89;2805498;83;21080;-90
2022/06/06 07:49:59;;;;;;;8.58;7.78;;;;;;;21.39;85.33;100159.16;2786077;83;21559;-91
2022/06/06 07:54:24;;;;;;;7.53;6.70;;;;;;;21.29;87.58;100150.59;2807220;82;21123;-90
2022/06/06 07:58:36;;;;;;;9.30;8.13;;;;;;;21.25;88.80;100161.81;2818991;83;21045;-90
2022/06/06 08:03:07;;;;;;;15.00;8.80;;;;;;;21.36;89.36;100167.18;2793034;82;21022;-90
2022/06/06 08:07:29;;;;;;;9.58;8.68;;;;;;;21.36;88.54;100167.68;2822330;83;21076;-91
2022/06/06 08:12:14;;;;;;;8.43;7.50;;;;;;;21.31;89.95;100171.51;2794229;83;21008;-91
2022/06/06 08:16:28;;;;;;;8.30;7.53;;;;;;;21.29;90.75;100176.29;2807811;83;21058;-86
2022/06/06 08:21:01;;;;;;;9.53;7.33;;;;;;;21.29;91.12;100183.05;2833764;83;21027;-90
2022/06/06 08:25:06;;;;;;;8.20;7.50;;;;;;;21.30;91.25;100190.13;2797499;83;21129;-90
2022/06/06 08:29:09;;;;;;;;;;;;;;;21.24;92.02;100198.52;2825144;82;21532;-91
2022/06/06 08:33:10;;;;;;;8.35;7.03;;;;;;;21.29;91.82;100199.28;2810449;82;20175;-89
2022/06/06 08:37:50;;;;;;;9.43;6.47;;;;;;;21.22;91.39;100201.44;2817045;83;21064;-91
2022/06/06 08:42:14;;;;;;;9.58;5.45;;;;;;;21.17;91.84;100206.58;2630566;89;21592;-90
2022/06/06 08:46:40;;;;;;;6.87;4.85;;;;;;;21.16;91.95;100203.56;2641029;87;21149;-91
2022/06/06 08:50:59;;;;;;;7.95;5.42;;;;;;;21.17;92.30;100202.52;2623087;89;21620;-91
2022/06/06 08:55:30;;;;;;;5.40;4.90;;;;;;;21.12;91.65;100209.05;2591023;89;21090;-91
2022/06/06 09:00:06;;;;;;;5.33;4.28;;;;;;;21.19;92.08;100208.56;2590486;89;21137;-90
2022/06/06 09:04:18;;;;;;;4.60;4.28;;;;;;;21.14;92.01;100218.33;2588257;89;21067;-91
2022/06/06 09:08:58;;;;;;;3.98;3.67;;;;;;;21.12;92.46;100216.63;2577268;90;21048;-91
2022/06/06 09:13:43;;;;;;;3.95;3.02;;;;;;;21.08;92.94;100221.30;2565515;92;21056;-92
2022/06/06 09:18:05;;;;;;;3.87;3.47;;;;;;;20.94;93.19;100223.89;2630516;87;21570;-90
2022/06/06 09:22:27;;;;;;;3.52;3.25;;;;;;;20.90;94.11;100230.73;2674736;87;21085;-91
2022/06/06 09:26:36;;;;;;;6.35;3.58;;;;;;;20.77;94.96;100237.34;2679687;88;21091;-91
2022/06/06 09:31:18;;;;;;;4.70;3.22;;;;;;;20.71;95.84;100232.19;2702584;87;21656;-90
2022/06/06 09:35:50;;;;;;;4.42;4.03;;;;;;;20.64;96.37;100236.70;2684383;87;21054;-90
2022/06/06 09:39:59;;;;;;;3.80;3.40;;;;;;;20.55;96.45;100242.25;2590524;90;21102;-91
2022/06/06 09:44:23;;;;;;;4.12;3.35;;;;;;;20.38;97.02;100242.17;2601066;90;21087;-90
2022/06/06 09:48:53;;;;;;;3.87;2.90;;;;;;;20.33;96.88;100251.34;2609160;89;21041;-90
2022/06/06 09:53:41;;;;;;;3.98;3.22;;;;;;;20.25;97.42;100254.50;2606657;89;21029;-91
2022/06/06 10:03:19;;;;;;;4.40;3.52;;;;;;;20.15;98.06;100262.08;2619129;89;21634;-90
2022/06/06 10:07:59;;;;;;;6.85;3.75;;;;;;;20.11;98.59;100265.66;2618931;89;21098;-90
2022/06/06 10:12:35;;;;;;;7.47;4.70;;;;;;;20.15;99.22;100263.93;2575669;90;21684;-89
2022/06/06 10:16:54;;;;;;;4.00;3.65;;;;;;;20.10;99.47;100264.48;2703733;84;21065;-90
2022/06/06 10:21:33;;;;;;;6.37;5.00;;;;;;;20.14;100.00;100267.66;2779687;84;21057;-90
2022/06/06 10:26:11;;;;;;;5.15;4.30;;;;;;;20.16;100.00;100260.20;2781328;84;21073;-91
2022/06/06 10:30:33;;;;;;;6.85;4.28;;;;;;;20.24;100.00;100266.83;2761682;84;21588;-90
2022/06/06 10:35:17;;;;;;;5.78;5.08;;;;;;;20.39;100.00;100264.11;2791854;84;21005;-88
2022/06/06 10:40:01;;;;;;;7.08;5.92;;;;;;;20.53;100.00;100261.02;2800824;84;21096;-91
2022/06/06 10:44:17;;;;;;;5.95;5.12;;;;;;;20.65;100.00;100255.94;2780463;84;21090;-91
2022/06/06 10:48:55;;;;;;;5.78;4.50;;;;;;;20.92;100.00;100253.50;2789593;83;21121;-90
2022/06/06 10:53:28;;;;;;;5.03;4.17;;;;;;;21.17;100.00;100264.73;2787900;84;21132;-90
2022/06/06 10:57:55;;;;;;;5.22;4.75;;;;;;;21.46;100.00;100249.84;2780548;84;21041;-91
2022/06/06 11:02:37;;;;;;;5.37;4.65;;;;;;;21.86;100.00;100256.84;2780330;84;21661;-88
2022/06/06 11:12:51;;;;;;;5.75;5.25;;;;;;;22.52;95.00;100232.91;2760384;84;21078;-91
2022/06/06 11:17:18;;;;;;;5.42;4.37;;;;;;;22.98;97.26;100238.05;2782411;84;21291;-91
2022/06/06 11:21:42;;;;;;;5.22;4.80;;;;;;;23.22;92.60;100230.30;2786556;84;21041;-87
2022/06/06 11:26:15;;;;;;;4.78;4.37;;;;;;;23.35;91.31;100231.67;2788153;83;21130;-90
2022/06/06 11:30:41;;;;;;;3.98;3.60;;;;;;;23.47;89.40;100233.72;2775291;84;21071;-90
2022/06/06 11:35:14;;;;;;;5.70;5.20;;;;;;;23.62;85.69;100227.52;2783031;84;21029;-90
2022/06/06 11:39:33;;;;;;;5.33;4.67;;;;;;;23.77;87.54;100230.51;2785682;84;21150;-90
2022/06/06 11:44:13;;;;;;;5.58;5.08;;;;;;;23.98;84.63;100225.83;2787336;84;21070;-90
2022/06/06 11:48:45;;;;;;;8.28;6.83;;;;;;;24.07;85.71;100228.11;2814062;83;21034;-89
2022/06/06 11:53:24;;;;;;;5.65;5.15;;;;;;;24.15;82.71;100229.74;2815804;83;21754;-90
2022/06/06 11:57:33;;;;;;;6.10;5.45;;;;;;;24.04;81.11;100227.19;2860121;81;21081;-90
2022/06/06 12:01:49;;;;;;;7.12;6.42;;;;;;;23.96;81.91;100226.03;2723066;85;21171;-91
2022/06/06 12:06:22;;;;;;;8.15;7.45;;;;;;;24.03;82.90;100226.87;2760199;84;21124;-87
2022/06/06 12:10:27;;;;;;;9.20;6.60;;;;;;;24.21;83.19;100230.22;2771077;84;21073;-92
2022/06/06 12:14:57;;;;;;;7.95;5.97;;;;;;;24.30;81.27;100228.08;2710679;84;21073;-91
2022/06/06 12:19:16;;;;;;;7.10;6.50;;;;;;;24.38;81.59;100222.91;2734199;84;21018;-88
2022/06/06 12:23:42;;;;;;;7.28;6.58;;;;;;;24.67;81.64;100217.91;2648977;88;21147;-91
2022/06/06 12:28:08;;;;;;;7.47;6.83;;;;;;;25.02;79.65;100210.61;2633210;88;21048;-91
2022/06/06 12:32:45;;;;;;;7.17;6.33;;;;;;;25.34;78.71;100203.70;2622947;88;21710;-91
2022/06/06 12:37:07;;;;;;;7.83;7.10;;;;;;;25.51;77.41;100212.12;2625902;87;21130;-92
2022/06/06 12:41:37;;;;;;;8.38;6.65;;;;;;;25.51;77.74;100211.31;2624626;89;21137;-89
2022/06/06 12:45:56;;;;;;;12.98;7.10;;;;;;;25.50;76.97;100205.02;2640020;88;21074;-90
2022/06/06 12:50:25;;;;;;;8.25;7.42;;;;;;;25.81;76.97;100205.91;2666775;88;21160;-91
2022/06/06 12:59:42;;;;;;;8.40;6.83;;;;;;;26.32;73.84;100187.12;2565825;90;21202;-89
2022/06/06 13:03:54;;;;;;;6.97;6.28;;;;;;;26.32;74.93;100179.75;2576507;90;21122;-90
2022/06/06 13:08:03;;;;;;;8.18;6.20;;;;;;;26.54;73.43;100175.14;2592065;90;21122;-90
2022/06/06 13:13:00;;;;;;;7.53;6.85;;;;;;;26.65;72.41;100178.39;2586942;90;21418;-88
2022/06/06 13:17:23;;;;;;;7.15;6.45;;;;;;;26.76;72.38;100175.92;2614311;89;21083;-90
2022/06/06 13:25:45;;;;;;;6.37;5.75;;;;;;;26.66;70.72;100174.59;2663441;88;21182;-90
2022/06/06 13:29:46;;;;;;;7.12;6.40;;;;;;;26.86;68.94;100167.19;2663280;86;21091;-90
2022/06/06 13:33:59;;;;;;;6.67;6.08;;;;;;;26.84;69.63;100170.66;2730996;85;21024;-86
2022/06/06 13:38:11;;;;;;;6.20;5.33;;;;;;;26.72;69.59;100166.02;2703174;86;21006;-89
2022/06/06 13:42:21;;;;;;;6.08;5.25;;;;;;;26.68;67.80;100163.46;2680081;86;21877;-90
2022/06/06 13:46:48;;;;;;;7.35;6.58;;;;;;;26.65;65.75;100159.30;2686685;86;21080;-89
2022/06/06 13:51:21;;;;;;;5.97;5.42;;;;;;;26.49;66.43;100162.72;2707598;86;21066;-90
2022/06/06 13:55:37;;;;;;;7.08;6.40;;;;;;;26.32;68.70;100164.76;2749738;85;21390;-86
2022/06/06 14:00:02;;;;;;;5.20;4.78;;;;;;;26.32;67.58;100159.30;2722774;84;21065;-92
2022/06/06 14:04:42;;;;;;;6.37;5.77;;;;;;;26.41;66.63;100154.34;2750268;84;21437;-86
2022/06/06 14:08:51;;;;;;;7.12;5.15;;;;;;;26.56;66.62;100144.36;2734384;85;21242;-90
2022/06/06 14:13:28;;;;;;;6.30;5.03;;;;;;;26.76;66.27;100141.83;2768625;85;21057;-90
2022/06/06 14:17:33;;;;;;;6.10;5.60;;;;;;;26.89;64.60;100130.68;2731870;85;21140;-90
2022/06/06 14:21:39;;;;;;;5.45;4.95;;;;;;;27.02;64.19;100124.69;2739931;85;21087;-91
2022/06/06 14:25:47;;;;;;;5.97;5.47;;;;;;;27.14;64.15;100121.41;2691782;86;21043;-90
2022/06/06 14:30:09;;;;;;;6.62;5.45;;;;;;;27.32;65.48;100119.59;2724320;85;21043;-90
2022/06/06 14:34:22;;;;;;;5.70;5.20;;;;;;;27.45;65.62;100120.66;2740065;85;21098;-91
2022/06/06 14:38:33;;;;;;;5.97;5.47;;;;;;;27.30;63.56;100123.08;2701235;86;21057;-90
2022/06/06 14:42:39;;;;;;;6.78;5.70;;;;;;;27.05;65.74;100115.50;2748813;84;21017;-91
2022/06/06 14:46:53;;;;;;;4.97;4.58;;;;;;;27.06;66.73;100110.33;2735257;85;21027;-89
2022/06/06 14:50:58;;;;;;;4.83;4.42;;;;;;;27.32;65.31;100111.41;2708904;85;21050;-91
2022/06/06 14:55:02;;;;;;;6.55;5.05;;;;;;;27.54;65.39;100103.94;2738422;85;21059;-91
2022/06/06 14:59:11;;;;;;;5.78;5.22;;;;;;;27.75;64.16;100105.14;2757845;84;20993;-92
2022/06/06 15:03:12;;;;;;;6.60;5.25;;;;;;;27.88;62.68;100109.47;2757540;84;21038;-89
2022/06/06 15:07:18;;;;;;;6.22;5.37;;;;;;;27.79;61.91;100101.68;2741784;84;21043;-88
2022/06/06 15:11:24;;;;;;;6.00;5.28;;;;;;;27.72;63.09;100106.48;2727746;85;21498;-88
2022/06/06 15:15:29;;;;;;;5.80;5.25;;;;;;;27.67;62.94;100096.80;2748332;85;21177;-90
2022/06/06 15:19:50;;;;;;;6.10;5.30;;;;;;;27.62;62.51;100091.25;2737213;85;21098;-88
2022/06/06 15:23:56;;;;;;;5.17;4.78;;;;;;;27.70;62.73;100090.84;2711480;85;21064;-89
2022/06/06 15:28:06;;;;;;;5.40;4.90;;;;;;;27.62;63.26;100088.52;2667376;87;21089;-90
2022/06/06 15:32:30;;;;;;;5.70;5.20;;;;;;;27.31;63.59;100081.05;2702017;86;21080;-87
2022/06/06 15:36:36;;;;;;;;;;;;;;;27.08;63.41;100080.05;2680551;87;21076;-90
2022/06/06 15:40:49;;;;;;;6.65;5.85;;;;;;;27.04;64.25;100078.88;2749574;84;20102;-90
2022/06/06 15:45:18;;;;;;;4.90;4.40;;;;;;;27.10;64.72;100071.08;2733032;85;21019;-90
2022/06/06 15:49:43;;;;;;;6.53;4.72;;;;;;;27.18;63.17;100066.63;2705486;86;21019;-90
2022/06/06 15:54:08;;;;;;;5.00;4.60;;;;;;;27.01;64.58;100072.54;2707153;86;21049;-89
2022/06/06 15:58:39;;;;;;;5.28;4.60;;;;;;;26.73;65.35;100074.92;2697226;86;21104;-87
2022/06/06 16:03:01;;;;;;;4.75;4.35;;;;;;;26.43;66.32;100075.05;2722835;85;21055;-91
2022/06/06 16:07:46;;;;;;;6.58;5.20;;;;;;;26.30;67.05;100063.29;2752902;84;21096;-89
2022/06/06 16:12:09;;;;;;;5.95;5.45;;;;;;;26.36;67.18;100058.28;2753407;84;21042;-87
2022/06/06 16:16:35;;;;;;;7.03;3.98;;;;;;;26.49;67.40;100057.73;2695647;86;21037;-86
2022/06/06 16:20:41;;;;;;;6.90;5.78;;;;;;;26.56;66.81;100050.27;2672271;86;21028;-87
2022/06/06 16:25:06;;;;;;;4.70;4.30;;;;;;;26.53;66.83;100056.21;2699620;87;21076;-88
2022/06/06 16:29:17;;;;;;;4.05;3.70;;;;;;;26.48;65.99;100051.98;2693827;86;21134;-89
2022/06/06 16:33:27;;;;;;;4.87;4.47;;;;;;;26.41;66.23;100052.09;2687553;87;21661;-88
2022/06/06 16:38:03;;;;;;;4.12;3.58;;;;;;;26.50;66.05;100052.05;2671806;86;21103;-91
2022/06/06 16:51:58;;;;;;;3.75;3.45;;;;;;;26.57;65.10;100042.91;2684932;86;21047;-90
2022/06/06 16:56:41;;;;;;;7.90;6.37;;;;;;;26.60;64.64;100043.27;2722899;85;21076;-92
2022/06/06 17:01:04;;;;;;;8.70;7.47;;;;;;;26.49;65.49;100040.00;2700886;86;21046;-89
2022/06/06 17:07:45;;;;;;;13.98;7.72;;;;;;;26.43;66.81;100040.97;2693366;86;21183;-87
2022/06/06 17:09:47;;;;;;;5.30;4.78;;;;;;;26.34;67.14;100036.39;2697574;86;21108;-91
2022/06/06 17:13:52;;;;;;;7.50;5.37;;;;;;;26.26;67.50;100043.58;2680004;87;21085;-91
2022/06/06 17:18:08;;;;;;;5.40;4.08;;;;;;;26.14;68.82;100046.23;2655691;87;21531;-88
2022/06/06 17:22:31;;;;;;;5.40;4.03;;;;;;;25.97;69.23;100045.58;2678044;86;22233;-89
2022/06/06 17:26:42;;;;;;;7.22;6.45;;;;;;;25.75;70.32;100040.69;2662229;86;21029;-91
2022/06/06 17:30:57;;;;;;;8.68;5.58;;;;;;;25.57;70.83;100043.47;2657541;86;21025;-90
2022/06/06 17:35:13;;;;;;;5.70;4.92;;;;;;;25.38;71.67;100047.02;2670232;87;21144;-90
2022/06/06 17:39:29;;;;;;;9.35;7.72;;;;;;;25.23;72.58;100043.86;2677981;86;21079;-89
2022/06/06 17:43:44;;;;;;;14.18;12.68;;;;;;;25.03;72.84;100045.49;2643676;88;21064;-91
2022/06/06 17:47:52;;;;;;;;;;;;;;;24.84;73.27;100056.38;2688828;86;21064;-89
2022/06/06 17:52:41;;;;;;;14.47;9.55;;;;;;;24.66;74.10;100045.75;2730521;85;20096;-89
2022/06/06 18:02:31;;;;;;;53.90;36.23;;;;;;;24.29;76.89;100044.33;2635739;89;21100;-88
2022/06/06 18:07:07;;;;;;;26.27;19.12;;;;;;;24.17;78.00;100047.45;2584859;91;21143;-90
2022/06/06 18:11:23;;;;;;;31.90;22.67;;;;;;;24.05;79.38;100040.55;2648169;88;21098;-89
2022/06/06 18:16:07;;;;;;;14.70;13.13;;;;;;;24.04;79.43;100041.09;2588069;90;21102;-87
2022/06/06 18:20:51;;;;;;;30.20;24.77;;;;;;;24.02;80.12;100036.41;2527558;92;21109;-87
2022/06/06 18:24:53;;;;;;;50.70;40.40;;;;;;;23.96;80.45;100039.96;2580476;90;21143;-85
2022/06/06 18:29:00;;;;;;;37.60;28.23;;;;;;;23.89;80.68;100037.83;2531950;92;21132;-88
2022/06/06 18:33:07;;;;;;;19.67;17.40;;;;;;;23.79;81.16;100035.09;2581355;89;21129;-89
2022/06/06 18:37:16;;;;;;;10.95;9.78;;;;;;;23.73;81.67;100033.23;2621957;89;21173;-87
2022/06/06 18:41:39;;;;;;;10.93;7.83;;;;;;;23.59;82.94;100033.85;2582387;89;21170;-89
2022/06/06 18:45:35;;;;;;;8.83;7.90;;;;;;;23.48;83.01;100031.81;2662561;87;21063;-88
2022/06/06 18:49:36;;;;;;;6.95;6.25;;;;;;;23.47;83.27;100036.43;2646329;87;21066;-88
2022/06/06 18:53:45;;;;;;;11.83;9.05;;;;;;;23.49;83.61;100043.02;2670828;87;21092;-90
2022/06/06 18:58:07;;;;;;;6.92;6.30;;;;;;;23.43;83.59;100045.22;2621140;88;21101;-89
2022/06/06 19:02:33;;;;;;;6.65;5.70;;;;;;;23.38;83.73;100049.93;2675750;87;21123;-89
2022/06/06 19:06:38;;;;;;;6.83;5.57;;;;;;;23.28;83.85;100046.86;2659935;87;21032;-88
2022/06/06 19:10:45;;;;;;;14.63;10.58;;;;;;;23.19;83.64;100053.87;2678457;87;21382;-89
2022/06/06 19:14:54;;;;;;;13.00;7.85;;;;;;;23.14;83.59;100044.17;2676022;87;21075;-87
2022/06/06 19:18:56;;;;;;;9.68;7.33;;;;;;;23.09;83.69;100053.48;2673067;88;21116;-88
2022/06/06 19:23:04;;;;;;;8.65;7.12;;;;;;;23.00;84.02;100046.64;2692428;86;21048;-89
2022/06/06 19:27:19;;;;;;;9.78;8.25;;;;;;;22.95;84.31;100050.80;2668658;88;21157;-89
2022/06/06 19:31:34;;;;;;;8.00;6.17;;;;;;;22.91;84.62;100047.41;2656249;87;21041;-88
2022/06/06 19:35:35;;;;;;;13.88;10.53;;;;;;;22.87;85.04;100038.85;2736267;86;21069;-88
2022/06/06 19:39:37;;;;;;;9.53;8.48;;;;;;;22.75;85.23;100039.19;2672387;88;21072;-88
2022/06/06 19:43:39;;;;;;;9.30;8.13;;;;;;;22.67;86.01;100041.09;2639980;89;21040;-90
2022/06/06 19:47:45;;;;;;;7.75;7.03;;;;;;;22.65;86.10;100040.47;2667507;87;21023;-89
2022/06/06 19:51:49;;;;;;;7.80;7.00;;;;;;;22.62;86.20;100041.41;2647323;88;21109;-88
2022/06/06 19:56:00;;;;;;;13.10;8.08;;;;;;;22.61;86.35;100034.33;2727660;86;21101;-88
2022/06/06 20:00:06;;;;;;;9.90;7.75;;;;;;;22.57;86.41;100031.20;2724015;86;21077;-90
2022/06/06 20:04:12;;;;;;;9.38;8.53;;;;;;;22.44;86.34;100028.50;2731401;86;21100;-88
2022/06/06 20:08:25;;;;;;;9.73;7.60;;;;;;;22.31;86.69;100028.81;2730766;86;21030;-88
2022/06/06 20:12:31;;;;;;;14.98;8.25;;;;;;;22.21;87.26;100022.47;2693409;86;21048;-86
2022/06/06 20:16:37;;;;;;;7.80;6.80;;;;;;;22.12;87.38;100014.25;2634792;89;21383;-88
2022/06/06 20:20:44;;;;;;;9.45;8.48;;;;;;;22.07;87.06;100010.81;2659214;87;21077;-88
2022/06/06 20:24:51;;;;;;;12.47;10.50;;;;;;;21.93;87.52;100008.62;2678678;87;21061;-89
2022/06/06 20:29:01;;;;;;;11.97;10.75;;;;;;;21.81;88.08;100011.13;2656494;87;21077;-89
2022/06/06 20:33:20;;;;;;;15.72;11.75;;;;;;;21.74;88.24;100017.03;2666062;88;21078;-87
2022/06/06 20:37:30;;;;;;;13.60;10.45;;;;;;;21.74;88.27;100015.67;2676919;87;21065;-89
2022/06/06 20:41:47;;;;;;;10.03;9.03;;;;;;;21.79;87.82;100023.19;2678512;87;21050;-89
2022/06/06 20:45:58;;;;;;;11.43;10.32;;;;;;;21.79;87.59;100025.36;2679444;87;21110;-87
2022/06/06 20:50:14;;;;;;;12.80;11.50;;;;;;;21.75;87.88;100024.11;2666797;88;21044;-88
2022/06/06 20:54:21;;;;;;;;;;;;;;;21.77;87.96;100027.97;2619868;88;21076;-88
2022/06/06 20:58:23;;;;;;;13.98;9.68;;;;;;;21.78;87.73;100039.93;2742290;85;20134;-89